Time;durP1;ratioP1;P1;durP2;ratioP2;P2;SDS_P1;SDS_P2;PMS_P1;PMS_P2;Temp;Humidity;BMP_temperature;BMP_pressure;BME280_temperature;BME280_humidity;BME280_pressure;Samples;Min_cycle;Max_cycle;Signal;HPM_P1;HPM_P2
2022/05/31 00:01:36;;;;;;;0.75;0.50;;;;;;;25.65;29.11;101087.13;5104079;28;20034;-48
2022/05/31 00:04:04;;;;;;;0.85;0.52;;;;;;;25.69;29.21;101089.78;5076518;28;20034;-44
2022/05/31 00:06:33;;;;;;;0.95;0.60;;;;;;;25.75;29.33;101092.44;5104204;28;20412;-45
2022/05/31 00:09:01;;;;;;;1.38;0.70;;;;;;;25.68;29.15;101093.28;5096093;28;20038;-44
2022/05/31 00:11:30;;;;;;;0.68;0.57;;;;;;;25.65;29.22;101098.50;5103815;28;20051;-45
2022/05/31 00:13:59;;;;;;;1.40;0.50;;;;;;;25.62;29.02;101093.22;5078949;28;20030;-44
2022/05/31 00:16:27;;;;;;;2.13;0.95;;;;;;;25.51;29.00;101082.63;5102620;28;20128;-44
2022/05/31 00:18:56;;;;;;;1.40;0.60;;;;;;;25.66;29.20;101108.16;5102630;28;20032;-45
2022/05/31 00:21:29;;;;;;;1.40;0.88;;;;;;;25.67;29.00;101103.75;5104278;28;20621;-46
2022/05/31 00:23:57;;;;;;;0.90;0.52;;;;;;;25.65;29.03;101105.53;5103713;28;20032;-44
2022/05/31 00:26:25;;;;;;;2.03;0.70;;;;;;;25.60;29.10;101095.84;5085707;28;20377;-44
2022/05/31 00:28:54;;;;;;;0.52;0.35;;;;;;;25.47;29.00;101080.88;5092603;28;20165;-44
2022/05/31 00:31:22;;;;;;;0.98;0.50;;;;;;;25.52;29.25;101100.16;5104370;28;20028;-44
2022/05/31 00:33:52;;;;;;;1.33;0.47;;;;;;;25.62;29.19;101109.00;5102996;28;20104;-44
2022/05/31 00:36:21;;;;;;;1.25;0.40;;;;;;;25.59;29.06;101109.84;5102466;28;20031;-46
2022/05/31 00:38:49;;;;;;;0.90;0.50;;;;;;;25.50;29.24;101085.25;5106371;28;20040;-44
2022/05/31 00:41:28;;;;;;;1.55;0.50;;;;;;;25.57;29.31;101108.06;5107759;28;20036;-45
2022/05/31 00:44:04;;;;;;;1.50;0.70;;;;;;;25.55;29.32;101108.06;5108038;28;20028;-44
2022/05/31 00:46:57;;;;;;;3.83;0.60;;;;;;;25.54;29.07;101103.66;5108156;28;20035;-44
2022/05/31 00:49:31;;;;;;;1.15;0.50;;;;;;;25.57;29.28;101115.94;5107876;28;20027;-46
2022/05/31 00:52:04;;;;;;;1.60;0.40;;;;;;;25.49;29.26;101102.75;5108364;28;20051;-45
2022/05/31 00:54:34;;;;;;;1.05;0.70;;;;;;;25.52;28.92;101108.03;5106483;28;20031;-44
2022/05/31 00:57:03;;;;;;;0.65;0.40;;;;;;;25.47;29.42;101109.75;5106381;28;20032;-45
2022/05/31 00:59:54;;;;;;;1.67;0.47;;;;;;;25.51;28.94;101110.66;5079961;28;20808;-45
2022/05/31 01:02:23;;;;;;;1.10;0.43;;;;;;;25.51;29.23;101103.63;5106393;28;20023;-44
2022/05/31 01:04:56;;;;;;;1.40;0.60;;;;;;;25.49;29.31;101102.75;5080215;28;20537;-45
2022/05/31 01:07:25;;;;;;;1.07;0.40;;;;;;;25.46;29.24;101108.00;5107530;28;20032;-44
2022/05/31 01:09:54;;;;;;;2.30;0.63;;;;;;;25.46;28.95;101108.00;5107185;28;20024;-43
2022/05/31 01:12:23;;;;;;;1.17;0.30;;;;;;;25.46;29.35;101103.59;5093475;28;20047;-44
2022/05/31 01:14:52;;;;;;;0.68;0.40;;;;;;;25.36;29.21;101085.09;5106184;28;20066;-45
2022/05/31 01:17:23;;;;;;;1.73;0.60;;;;;;;25.44;29.33;101105.34;5099320;28;20031;-48
2022/05/31 01:19:56;;;;;;;1.50;0.60;;;;;;;25.37;28.95;101103.50;5107191;28;20024;-45
2022/05/31 01:22:38;;;;;;;1.08;0.45;;;;;;;25.38;29.32;101107.00;5105461;28;20047;-46
2022/05/31 01:25:23;;;;;;;0.80;0.32;;;;;;;25.37;29.40;101098.25;5107104;28;20126;-45
2022/05/31 01:28:10;;;;;;;;;;;;;;;25.43;28.85;101100.94;5107580;28;20027;-47
2022/05/31 01:30:43;;;;;;;0.95;0.40;;;;;;;25.42;28.85;101106.19;5106929;28;19927;-44
2022/05/31 01:33:37;;;;;;;1.13;0.47;;;;;;;25.42;28.94;101101.81;5081821;28;20047;-47
2022/05/31 01:36:13;;;;;;;1.10;0.60;;;;;;;25.36;28.90;101095.59;5088263;28;20140;-44
2022/05/31 01:38:52;;;;;;;0.57;0.40;;;;;;;25.33;28.91;101094.69;5105497;28;20031;-44
2022/05/31 01:41:28;;;;;;;4.53;0.70;;;;;;;25.34;29.14;101095.59;5106507;28;20020;-44
2022/05/31 01:43:58;;;;;;;2.17;0.40;;;;;;;25.34;29.27;101099.09;5105433;28;20671;-44
2022/05/31 01:46:32;;;;;;;0.65;0.30;;;;;;;25.38;29.14;101101.75;5106944;28;20035;-44
2022/05/31 01:49:01;;;;;;;1.85;0.50;;;;;;;25.31;29.28;101091.19;5088588;28;20031;-46
2022/05/31 01:51:29;;;;;;;0.95;0.60;;;;;;;25.28;28.92;101088.53;5094173;28;20106;-44
2022/05/31 01:54:00;;;;;;;1.45;0.40;;;;;;;25.32;29.26;101098.19;5105394;28;20027;-44
2022/05/31 01:56:29;;;;;;;1.08;0.45;;;;;;;25.33;28.92;101088.56;5078069;28;20055;-45
2022/05/31 01:58:57;;;;;;;1.13;0.50;;;;;;;25.31;29.17;101087.69;5088268;28;20110;-44
2022/05/31 02:01:27;;;;;;;1.67;0.45;;;;;;;25.21;29.42;101086.72;5104795;28;20043;-45
2022/05/31 02:03:56;;;;;;;1.65;0.77;;;;;;;25.28;29.09;101095.53;5105080;28;20827;-44
2022/05/31 02:06:27;;;;;;;1.45;0.47;;;;;;;25.22;29.48;101095.47;5106478;28;20050;-46
2022/05/31 02:08:55;;;;;;;1.40;0.50;;;;;;;25.27;29.04;101101.63;5088849;28;20024;-48
2022/05/31 02:11:24;;;;;;;3.03;0.63;;;;;;;25.03;29.28;101072.53;5072231;28;20047;-46
2022/05/31 02:13:53;;;;;;;1.52;0.35;;;;;;;25.26;29.27;101106.03;5104937;28;20031;-47
2022/05/31 02:16:21;;;;;;;0.60;0.40;;;;;;;25.22;28.89;101090.22;5106098;28;20042;-45
2022/05/31 02:19:32;;;;;;;1.55;0.45;;;;;;;25.20;29.13;101086.72;5104543;28;20031;-44
2022/05/31 02:21:37;;;;;;;0.70;0.30;;;;;;;25.18;28.97;101086.66;5100479;28;20746;-47
2022/05/31 02:24:09;;;;;;;0.85;0.25;;;;;;;25.24;29.19;101094.63;5105970;28;20848;-46
2022/05/31 02:26:41;;;;;;;1.17;0.40;;;;;;;25.22;29.20;101098.09;5106032;28;20046;-46
2022/05/31 02:29:11;;;;;;;3.13;0.75;;;;;;;25.17;29.06;101087.53;5106302;28;20111;-45
2022/05/31 02:31:40;;;;;;;0.85;0.45;;;;;;;25.21;28.95;101085.84;5091333;28;20488;-44
2022/05/31 02:34:09;;;;;;;1.00;0.40;;;;;;;25.18;29.33;101082.31;5087410;28;20389;-45
2022/05/31 02:36:37;;;;;;;0.60;0.35;;;;;;;25.21;29.27;101089.34;5104510;28;20035;-48
2022/05/31 02:39:06;;;;;;;1.65;0.47;;;;;;;25.20;28.86;101098.06;5105512;28;20436;-44
2022/05/31 02:41:35;;;;;;;1.38;0.45;;;;;;;25.14;29.17;101091.03;5094062;28;20350;-44
2022/05/31 02:44:05;;;;;;;1.77;0.52;;;;;;;25.18;29.31;101090.19;5104388;28;20027;-44
2022/05/31 02:46:33;;;;;;;0.88;0.45;;;;;;;25.06;28.83;101062.94;5105778;28;20431;-45
2022/05/31 02:49:04;;;;;;;0.77;0.40;;;;;;;25.14;28.70;101095.41;5105974;28;20425;-45
2022/05/31 02:51:37;;;;;;;0.65;0.20;;;;;;;25.08;29.27;101088.31;5105930;28;20484;-45
2022/05/31 02:54:07;;;;;;;1.48;0.35;;;;;;;25.14;29.29;101082.28;5073863;28;20031;-44
2022/05/31 02:56:36;;;;;;;0.98;0.20;;;;;;;25.18;28.91;101094.56;5105133;28;20031;-46
2022/05/31 02:59:05;;;;;;;1.00;0.40;;;;;;;25.18;28.87;101089.31;5105566;28;20039;-49
2022/05/31 03:01:37;;;;;;;0.77;0.47;;;;;;;25.15;29.34;101090.16;5104440;28;20477;-46
2022/05/31 03:04:06;;;;;;;0.63;0.25;;;;;;;25.07;28.82;101089.19;5094139;28;20031;-46
2022/05/31 03:06:35;;;;;;;0.60;0.28;;;;;;;25.09;29.16;101090.09;5105227;28;20035;-45
2022/05/31 03:09:04;;;;;;;0.57;0.22;;;;;;;25.05;28.89;101077.81;5103590;28;20024;-46
2022/05/31 03:12:01;;;;;;;2.60;0.43;;;;;;;25.10;29.24;101083.09;5104976;28;20126;-53
2022/05/31 03:14:39;;;;;;;0.57;0.30;;;;;;;25.07;29.12;101077.81;5101346;28;20067;-47
2022/05/31 03:17:27;;;;;;;0.43;0.25;;;;;;;25.08;28.73;101084.84;5105098;28;20119;-45
2022/05/31 03:20:02;;;;;;;1.13;0.50;;;;;;;25.08;29.06;101085.69;5105162;28;20373;-47
2022/05/31 03:22:30;;;;;;;;;;;;;;;25.06;28.91;101083.94;5105375;28;20034;-46
2022/05/31 03:25:04;;;;;;;0.30;0.22;;;;;;;25.03;29.02;101076.91;5103887;28;19998;-50
2022/05/31 03:27:33;;;;;;;0.57;0.20;;;;;;;25.05;28.74;101077.81;5104894;28;20023;-46
2022/05/31 03:30:02;;;;;;;0.35;0.35;;;;;;;25.08;28.83;101079.59;5103175;28;20405;-44
2022/05/31 03:32:32;;;;;;;0.90;0.52;;;;;;;25.04;28.80;101076.06;5104677;28;20043;-45
2022/05/31 03:35:00;;;;;;;1.17;0.45;;;;;;;25.00;28.67;101072.50;5104655;28;20067;-46
2022/05/31 03:37:29;;;;;;;0.52;0.40;;;;;;;24.95;28.71;101078.56;5104700;28;20039;-44
2022/05/31 03:39:58;;;;;;;0.50;0.32;;;;;;;24.96;29.08;101083.84;5103215;28;20028;-47
2022/05/31 03:42:26;;;;;;;1.30;0.40;;;;;;;25.00;29.05;101080.38;5104708;28;20031;-45
2022/05/31 03:44:55;;;;;;;1.80;0.75;;;;;;;24.99;29.00;101075.97;5104193;28;20027;-48
2022/05/31 03:47:23;;;;;;;0.82;0.20;;;;;;;25.01;28.72;101076.03;5103056;28;20070;-44
2022/05/31 03:49:50;;;;;;;0.90;0.32;;;;;;;24.93;28.77;101072.41;5104199;28;20032;-49
2022/05/31 03:52:19;;;;;;;1.58;0.40;;;;;;;24.95;28.96;101083.81;5104482;28;20030;-46
2022/05/31 03:54:47;;;;;;;0.40;0.25;;;;;;;24.96;28.99;101075.09;5104168;28;20111;-48
2022/05/31 03:57:20;;;;;;;1.08;0.43;;;;;;;24.97;29.09;101083.00;5104060;28;20088;-45
2022/05/31 03:59:48;;;;;;;0.75;0.30;;;;;;;24.98;28.93;101081.22;5104598;28;20027;-47
2022/05/31 04:02:17;;;;;;;0.63;0.30;;;;;;;24.86;28.67;101072.38;5103818;28;20023;-45
2022/05/31 04:04:46;;;;;;;1.58;0.50;;;;;;;24.91;28.84;101077.66;5104346;28;20114;-47
2022/05/31 04:07:14;;;;;;;0.85;0.40;;;;;;;24.87;28.76;101073.25;5104221;28;20030;-46
2022/05/31 04:09:43;;;;;;;1.63;0.40;;;;;;;24.88;28.84;101093.38;5103869;28;20043;-44
2022/05/31 04:12:11;;;;;;;0.75;0.20;;;;;;;24.89;28.84;101089.88;5104026;28;20047;-49
2022/05/31 04:14:40;;;;;;;2.50;0.43;;;;;;;24.88;28.59;101096.88;5103758;28;20035;-46
2022/05/31 04:17:08;;;;;;;0.75;0.40;;;;;;;24.79;28.60;101073.16;5103886;28;20044;-44
2022/05/31 04:19:37;;;;;;;1.88;0.43;;;;;;;24.86;29.02;101084.59;5103977;28;20076;-45
2022/05/31 04:22:05;;;;;;;1.27;0.40;;;;;;;24.82;28.86;101073.19;5103834;28;20038;-50
2022/05/31 04:24:35;;;;;;;1.88;0.50;;;;;;;24.82;29.07;101070.56;5104096;28;20035;-48
2022/05/31 04:27:04;;;;;;;0.88;0.30;;;;;;;24.83;28.97;101072.34;5104073;28;20118;-45
2022/05/31 04:29:33;;;;;;;2.90;0.40;;;;;;;24.83;28.58;101071.44;5103784;28;20488;-45
2022/05/31 04:32:01;;;;;;;0.60;0.28;;;;;;;24.83;29.04;101074.06;5102681;28;20118;-46
2022/05/31 04:34:30;;;;;;;0.30;0.30;;;;;;;24.78;28.61;101062.66;5104087;28;20492;-48
2022/05/31 04:36:59;;;;;;;0.40;0.40;;;;;;;24.80;28.59;101079.28;5103236;28;20094;-45
2022/05/31 04:39:27;;;;;;;1.02;0.40;;;;;;;24.78;29.04;101081.88;5103866;28;20031;-47
2022/05/31 04:41:55;;;;;;;0.77;0.38;;;;;;;24.76;29.02;101082.75;5085502;28;20049;-44
2022/05/31 04:44:23;;;;;;;0.75;0.40;;;;;;;24.76;28.98;101090.59;5104056;28;20024;-47
2022/05/31 04:46:52;;;;;;;0.45;0.30;;;;;;;24.75;28.65;101091.47;5103975;28;20055;-44
2022/05/31 04:49:20;;;;;;;1.35;0.45;;;;;;;24.73;28.74;101089.72;5103894;28;20121;-45
2022/05/31 04:51:49;;;;;;;4.53;0.40;;;;;;;24.67;29.01;101078.22;5103834;28;20522;-44
2022/05/31 04:54:18;;;;;;;0.82;0.30;;;;;;;24.75;28.91;101096.72;5103726;28;20077;-49
2022/05/31 04:56:46;;;;;;;1.88;0.40;;;;;;;24.77;28.63;101095.88;5103397;28;20032;-45
2022/05/31 04:59:15;;;;;;;1.48;0.43;;;;;;;24.78;28.72;101091.50;5103566;28;20084;-44
2022/05/31 05:01:43;;;;;;;1.60;0.40;;;;;;;24.76;28.82;101101.97;5103663;28;20472;-50
2022/05/31 05:04:11;;;;;;;1.05;0.47;;;;;;;24.73;28.78;101102.81;5103714;28;20031;-44
2022/05/31 05:06:40;;;;;;;0.93;0.35;;;;;;;24.74;28.60;101106.31;5103040;28;20032;-44
2022/05/31 05:09:09;;;;;;;0.22;0.20;;;;;;;24.75;28.45;101110.69;5103082;28;20115;-46
2022/05/31 05:11:36;;;;;;;4.95;0.82;;;;;;;24.79;28.75;101104.63;5103138;28;20055;-44
2022/05/31 05:14:05;;;;;;;1.35;0.70;;;;;;;24.75;28.89;101107.22;5103317;28;20547;-45
2022/05/31 05:16:33;;;;;;;0.98;0.50;;;;;;;24.76;28.52;101112.47;5103643;28;20490;-45
2022/05/31 05:19:02;;;;;;;1.83;0.30;;;;;;;24.71;28.90;101114.19;5103569;28;20030;-46
2022/05/31 05:21:30;;;;;;;1.20;0.40;;;;;;;24.72;28.51;101122.06;5103432;28;20039;-46
2022/05/31 05:23:59;;;;;;;2.42;0.60;;;;;;;24.76;28.87;101112.47;5103201;28;20055;-45
2022/05/31 05:26:28;;;;;;;1.05;0.38;;;;;;;24.81;28.88;101130.91;5106529;28;20031;-46
2022/05/31 05:31:43;;;;;;;1.23;0.82;;;;;;;24.85;28.86;101130.97;5103210;28;20477;-45
2022/05/31 05:34:10;;;;;;;1.42;0.40;;;;;;;24.76;28.78;101115.09;5107132;28;20058;-47
2022/05/31 05:36:39;;;;;;;1.63;0.25;;;;;;;24.95;28.45;101145.06;5107038;28;20034;-49
2022/05/31 05:39:10;;;;;;;2.63;0.30;;;;;;;25.00;28.60;101137.25;5107015;28;20028;-45
2022/05/31 05:41:40;;;;;;;0.90;0.40;;;;;;;25.03;28.68;101145.16;5106355;28;20481;-45
2022/05/31 05:44:09;;;;;;;2.63;0.30;;;;;;;25.07;28.59;101146.06;5106846;28;20027;-45
2022/05/31 05:46:37;;;;;;;1.33;0.73;;;;;;;24.93;28.61;101115.31;5107118;28;20020;-45
2022/05/31 05:49:06;;;;;;;1.30;0.40;;;;;;;25.16;28.57;101141.81;5106844;28;20050;-44
2022/05/31 05:51:35;;;;;;;2.88;0.38;;;;;;;25.20;28.53;101157.59;5105571;28;20089;-49
2022/05/31 05:54:03;;;;;;;3.40;0.47;;;;;;;25.21;28.58;101144.47;5106364;28;20024;-45
2022/05/31 05:56:32;;;;;;;2.88;0.30;;;;;;;25.33;28.94;101152.47;5106498;28;20057;-44
2022/05/31 05:59:00;;;;;;;1.30;0.52;;;;;;;25.37;28.81;101147.25;5106316;28;20059;-45
2022/05/31 06:01:31;;;;;;;0.68;0.50;;;;;;;25.39;28.97;101158.66;5106209;28;20039;-45
2022/05/31 06:04:10;;;;;;;0.50;0.30;;;;;;;25.45;28.79;101159.63;5106699;28;21108;-47
2022/05/31 06:06:41;;;;;;;0.70;0.40;;;;;;;25.52;29.05;101159.69;5104674;28;20126;-45
2022/05/31 06:09:14;;;;;;;2.20;0.40;;;;;;;25.55;28.87;101165.84;5106245;28;20051;-45
2022/05/31 06:11:47;;;;;;;4.68;0.45;;;;;;;25.68;28.95;101171.22;5106112;28;20971;-47
2022/05/31 06:14:21;;;;;;;2.38;0.85;;;;;;;25.71;29.05;101161.63;5106543;28;20065;-47
2022/05/31 06:16:52;;;;;;;0.88;0.22;;;;;;;25.75;29.06;101159.91;5106144;28;20855;-45
2022/05/31 06:19:23;;;;;;;4.35;0.50;;;;;;;25.78;29.18;101168.69;5105963;28;20039;-44
2022/05/31 06:21:53;;;;;;;3.10;0.52;;;;;;;25.86;29.11;101165.25;5104403;28;20114;-46
2022/05/31 06:24:23;;;;;;;1.75;0.30;;;;;;;25.87;29.35;101167.88;5106020;28;20080;-44
2022/05/31 06:26:52;;;;;;;1.25;0.60;;;;;;;25.85;29.34;101158.22;5104744;28;20045;-45
2022/05/31 06:29:20;;;;;;;3.00;0.50;;;;;;;26.01;29.50;101172.38;5105386;28;20882;-44
2022/05/31 06:31:49;;;;;;;2.55;0.38;;;;;;;26.03;29.70;101171.53;5105923;28;20045;-50
2022/05/31 06:34:18;;;;;;;1.38;0.30;;;;;;;26.05;29.83;101174.16;5106024;28;20046;-49
2022/05/31 06:36:46;;;;;;;0.70;0.35;;;;;;;26.12;29.62;101173.38;5105673;28;20028;-48
2022/05/31 06:39:15;;;;;;;3.80;0.40;;;;;;;26.14;29.89;101174.28;5105978;28;20080;-49
2022/05/31 06:41:43;;;;;;;1.58;0.30;;;;;;;26.20;29.66;101176.94;5105376;28;20508;-49
2022/05/31 06:44:12;;;;;;;0.98;0.40;;;;;;;26.31;29.90;101178.78;5105781;28;20059;-46
2022/05/31 06:46:40;;;;;;;1.08;0.40;;;;;;;26.37;29.93;101177.06;5105633;28;20110;-44
2022/05/31 06:49:09;;;;;;;1.67;0.65;;;;;;;26.40;29.82;101181.44;5105672;28;20027;-45
2022/05/31 06:57:11;;;;;;;1.52;0.40;;;;;;;26.59;29.73;101189.44;5098098;28;20062;-48
2022/05/31 06:59:40;;;;;;;4.07;0.50;;;;;;;26.61;29.90;101187.72;5105581;28;20031;-50
2022/05/31 07:02:08;;;;;;;0.45;0.20;;;;;;;26.65;29.77;101194.72;5105059;28;20027;-44
2022/05/31 07:04:36;;;;;;;2.08;0.52;;;;;;;26.70;30.01;101190.38;5105573;28;20420;-44
2022/05/31 07:07:05;;;;;;;2.10;0.40;;;;;;;26.72;29.88;101187.75;5087442;28;20031;-48
2022/05/31 07:09:35;;;;;;;2.13;0.40;;;;;;;26.78;29.68;101193.94;5105243;28;20135;-49
2022/05/31 07:12:04;;;;;;;4.75;0.47;;;;;;;26.81;29.95;101199.22;5105001;28;20561;-46
2022/05/31 07:14:32;;;;;;;1.10;0.40;;;;;;;26.85;29.84;101197.50;5105222;28;20038;-45
2022/05/31 07:17:01;;;;;;;0.85;0.40;;;;;;;26.88;29.90;101199.25;5104885;28;20473;-47
2022/05/31 07:19:29;;;;;;;0.95;0.30;;;;;;;26.96;29.97;101205.44;5104213;28;20092;-45
2022/05/31 07:21:59;;;;;;;2.38;0.38;;;;;;;27.02;29.85;101200.19;5104843;28;20101;-45
2022/05/31 07:24:29;;;;;;;4.40;0.80;;;;;;;26.98;29.78;101190.50;5104736;28;20031;-45
2022/05/31 07:26:57;;;;;;;2.80;0.47;;;;;;;27.11;30.08;101194.06;5105185;28;20088;-43
2022/05/31 07:29:28;;;;;;;2.08;0.55;;;;;;;27.17;29.78;101194.13;5104905;28;20032;-47
2022/05/31 07:31:56;;;;;;;0.70;0.32;;;;;;;27.24;29.86;101195.00;5104582;28;20023;-44
2022/05/31 07:34:25;;;;;;;2.88;0.60;;;;;;;27.27;29.93;101195.03;5104946;28;20061;-48
2022/05/31 07:36:54;;;;;;;1.33;0.57;;;;;;;27.34;29.70;101199.41;5103254;28;20027;-44
2022/05/31 07:39:23;;;;;;;5.78;0.40;;;;;;;27.37;29.92;101195.94;5104466;28;20104;-45
2022/05/31 07:41:52;;;;;;;2.10;0.35;;;;;;;27.39;29.79;101194.16;5104292;28;20039;-46
2022/05/31 07:44:21;;;;;;;1.90;0.50;;;;;;;27.45;29.80;101194.16;5104599;28;20819;-46
2022/05/31 07:46:50;;;;;;;1.50;0.60;;;;;;;27.46;29.83;101195.97;5103000;28;20062;-46
2022/05/31 07:49:18;;;;;;;1.45;0.45;;;;;;;27.57;29.47;101195.97;5104048;28;21008;-44
2022/05/31 07:51:47;;;;;;;4.15;0.60;;;;;;;27.58;29.60;101205.66;5104590;28;20024;-44
2022/05/31 07:54:15;;;;;;;3.55;0.38;;;;;;;27.61;29.65;101192.47;5069518;28;20032;-45
2022/05/31 07:56:44;;;;;;;3.10;0.80;;;;;;;27.63;29.57;101193.38;5104233;28;20082;-46
2022/05/31 07:59:12;;;;;;;2.88;0.40;;;;;;;27.72;29.47;101201.28;5104444;28;20024;-44
2022/05/31 08:01:41;;;;;;;1.55;0.70;;;;;;;27.80;29.60;101205.69;5103977;28;20031;-44
2022/05/31 08:04:10;;;;;;;3.30;1.85;;;;;;;27.86;29.37;101203.03;5104307;28;20038;-45
2022/05/31 08:06:38;;;;;;;2.60;0.90;;;;;;;27.87;29.46;101204.78;5103042;28;20027;-46
2022/05/31 08:09:06;;;;;;;1.80;0.50;;;;;;;27.90;29.53;101204.78;5104252;28;20032;-44
2022/05/31 08:11:36;;;;;;;0.57;0.35;;;;;;;27.97;29.35;101203.03;5103510;28;20654;-46
2022/05/31 08:14:04;;;;;;;1.30;0.50;;;;;;;28.03;29.80;101211.81;5103596;28;20031;-46
2022/05/31 08:16:34;;;;;;;0.70;0.40;;;;;;;28.09;29.08;101213.56;5085587;28;20042;-44
2022/05/31 08:19:04;;;;;;;0.38;0.20;;;;;;;28.11;29.35;101205.72;5102660;28;20024;-45
2022/05/31 08:21:33;;;;;;;0.60;0.40;;;;;;;28.15;29.38;101210.06;5095344;28;20039;-45
2022/05/31 08:24:05;;;;;;;1.00;0.45;;;;;;;28.20;29.10;101211.84;5088412;28;20519;-45
2022/05/31 08:26:35;;;;;;;1.05;0.40;;;;;;;28.20;29.13;101210.97;5102748;28;20031;-45
2022/05/31 08:29:03;;;;;;;0.77;0.30;;;;;;;28.19;29.19;101225.03;5103259;28;20392;-45
2022/05/31 08:31:35;;;;;;;1.10;0.30;;;;;;;28.23;29.30;101217.97;5103760;28;20027;-45
2022/05/31 08:34:05;;;;;;;1.00;0.30;;;;;;;28.27;29.23;101219.75;5103472;28;20028;-44
2022/05/31 08:36:33;;;;;;;0.60;0.20;;;;;;;28.31;29.16;101217.09;5092430;28;20160;-47
2022/05/31 08:39:02;;;;;;;2.47;0.47;;;;;;;28.33;29.04;101219.75;5091787;28;20213;-44
2022/05/31 08:41:33;;;;;;;1.33;0.40;;;;;;;28.36;29.34;101211.84;5103487;28;20031;-45
2022/05/31 08:44:25;;;;;;;2.75;0.40;;;;;;;28.39;29.05;101203.03;5091800;28;20244;-44
2022/05/31 08:47:03;;;;;;;1.33;0.40;;;;;;;28.44;29.19;101207.41;5103282;28;20030;-46
2022/05/31 08:53:24;;;;;;;0.55;0.30;;;;;;;28.49;29.27;101207.38;5091867;28;20054;-45
2022/05/31 08:58:58;;;;;;;0.47;0.20;;;;;;;28.59;29.13;101209.13;5099859;28;20040;-45
2022/05/31 09:01:30;;;;;;;0.60;0.30;;;;;;;28.61;29.07;101217.03;5106799;28;20114;-44
2022/05/31 09:04:11;;;;;;;1.58;0.50;;;;;;;28.69;28.89;101215.28;5106438;28;20031;-44
2022/05/31 09:06:53;;;;;;;2.00;0.47;;;;;;;28.68;28.87;101202.97;5106348;28;20078;-45
2022/05/31 09:09:26;;;;;;;2.28;0.30;;;;;;;28.73;28.83;101205.56;5106212;28;20032;-46
2022/05/31 09:12:03;;;;;;;0.43;0.20;;;;;;;28.75;28.93;101206.47;5106167;28;20057;-45
2022/05/31 09:14:43;;;;;;;1.17;0.30;;;;;;;28.78;29.03;101215.25;5096568;28;20115;-46
2022/05/31 09:17:35;;;;;;;0.93;0.32;;;;;;;28.81;28.99;101219.66;5106703;28;20023;-45
2022/05/31 09:20:10;;;;;;;0.50;0.30;;;;;;;28.76;28.83;101205.59;5105428;28;20027;-46
2022/05/31 09:22:42;;;;;;;1.17;0.40;;;;;;;28.86;28.85;101209.94;5090014;28;20027;-46
2022/05/31 09:25:11;;;;;;;0.50;0.30;;;;;;;28.76;28.76;101189.75;5106953;28;20046;-45
2022/05/31 09:27:50;;;;;;;1.90;0.47;;;;;;;28.86;29.00;101211.72;5106587;28;20038;-45
2022/05/31 09:30:27;;;;;;;1.17;0.28;;;;;;;28.92;28.81;101212.56;5105824;28;20031;-45
2022/05/31 09:33:14;;;;;;;0.88;0.20;;;;;;;28.94;28.93;101215.19;5105680;28;20099;-45
2022/05/31 09:36:02;;;;;;;1.70;0.47;;;;;;;28.93;28.76;101211.69;5105556;28;20465;-45
2022/05/31 09:38:41;;;;;;;0.75;0.30;;;;;;;28.94;28.85;101215.19;5107172;28;20460;-45
2022/05/31 09:41:28;;;;;;;0.82;0.22;;;;;;;28.93;28.95;101230.19;5105526;28;20065;-45
2022/05/31 09:44:17;;;;;;;0.65;0.43;;;;;;;28.78;28.77;101201.19;5097641;28;20377;-45
2022/05/31 09:46:55;;;;;;;1.75;0.50;;;;;;;28.81;28.23;101222.28;5099771;28;20065;-45
2022/05/31 09:49:27;;;;;;;2.88;0.88;;;;;;;28.70;27.99;101208.22;5105378;28;20024;-45
2022/05/31 09:51:56;;;;;;;1.58;0.50;;;;;;;28.63;28.06;101215.28;5107101;28;20076;-44
2022/05/31 09:57:19;;;;;;;2.90;1.10;;;;;;;28.38;27.55;101214.47;5101985;28;20149;-46
2022/05/31 09:59:50;;;;;;;2.92;0.88;;;;;;;28.23;26.54;101221.53;5106535;28;20115;-45
2022/05/31 10:02:37;;;;;;;2.28;0.70;;;;;;;28.07;27.44;101217.09;5106654;28;20027;-44
2022/05/31 10:05:25;;;;;;;3.75;1.13;;;;;;;27.97;27.56;101214.44;5106262;28;20039;-44
2022/05/31 10:07:55;;;;;;;3.88;1.08;;;;;;;27.58;27.99;101185.44;5104985;28;20484;-45
2022/05/31 10:10:31;;;;;;;4.60;0.98;;;;;;;27.43;29.09;101212.63;5104432;28;20034;-45
2022/05/31 10:13:03;;;;;;;4.13;0.90;;;;;;;27.23;29.53;101216.94;5106082;28;20044;-44
2022/05/31 10:15:34;;;;;;;3.45;0.85;;;;;;;27.04;29.56;101222.16;5076772;28;20028;-45
2022/05/31 10:18:06;;;;;;;4.15;0.95;;;;;;;26.76;29.83;101218.47;5106212;28;20119;-45
2022/05/31 10:20:35;;;;;;;3.30;0.55;;;;;;;26.50;30.06;101219.22;5106057;28;20558;-44
2022/05/31 10:23:06;;;;;;;3.15;0.82;;;;;;;26.48;30.05;101224.44;5088121;28;20044;-45
2022/05/31 10:25:41;;;;;;;3.97;0.60;;;;;;;26.34;29.83;101219.09;5104842;28;20023;-44
2022/05/31 10:28:21;;;;;;;3.65;1.05;;;;;;;26.47;29.86;101229.72;5106217;28;20031;-46
2022/05/31 10:30:56;;;;;;;3.05;0.93;;;;;;;26.36;30.12;101230.53;5106400;28;20427;-45
2022/05/31 10:33:26;;;;;;;3.67;0.80;;;;;;;26.06;30.23;101218.84;5104448;28;20080;-44
2022/05/31 10:36:07;;;;;;;3.13;1.10;;;;;;;26.12;30.35;101220.69;5087724;28;20099;-46
2022/05/31 10:38:36;;;;;;;4.43;0.85;;;;;;;26.12;30.41;101228.59;5105685;28;20043;-44
2022/05/31 10:41:07;;;;;;;1.90;0.60;;;;;;;25.95;30.30;101217.88;5104143;28;20028;-47
2022/05/31 10:43:46;;;;;;;3.17;0.90;;;;;;;25.91;30.25;101227.50;5104057;28;20041;-44
2022/05/31 10:46:35;;;;;;;4.80;1.00;;;;;;;25.84;30.35;101224.81;5106014;28;20030;-46
2022/05/31 10:49:22;;;;;;;3.30;0.85;;;;;;;25.93;30.46;101228.41;5095897;28;20036;-45
2022/05/31 10:52:12;;;;;;;2.75;0.75;;;;;;;25.85;30.28;101227.44;5103994;28;20508;-47
2022/05/31 10:54:49;;;;;;;4.70;1.10;;;;;;;25.80;30.64;101234.41;5102478;28;20444;-44
2022/05/31 10:57:39;;;;;;;5.10;1.40;;;;;;;25.70;31.06;101228.19;5105564;28;20050;-44
2022/05/31 11:00:20;;;;;;;3.15;0.98;;;;;;;25.38;31.23;101218.19;5102655;28;20084;-43
2022/05/31 11:02:56;;;;;;;3.65;0.60;;;;;;;25.26;31.21;101232.06;5103835;28;20389;-47
2022/05/31 11:05:50;;;;;;;1.65;0.70;;;;;;;25.22;31.57;101239.88;5104965;28;20223;-43
2022/05/31 11:11:46;;;;;;;1.80;0.70;;;;;;;25.13;31.36;101244.16;5095887;28;20125;-44
2022/05/31 11:14:25;;;;;;;2.15;0.50;;;;;;;25.24;31.24;101246.00;5102052;28;20107;-45
2022/05/31 11:17:03;;;;;;;1.98;0.80;;;;;;;25.29;31.22;101239.97;5104643;28;20034;-44
2022/05/31 11:19:50;;;;;;;2.85;0.88;;;;;;;25.20;30.67;101242.47;5103776;28;20110;-44
2022/05/31 11:22:50;;;;;;;3.78;0.88;;;;;;;25.16;31.62;101249.44;5103996;28;20154;-43
2022/05/31 11:25:46;;;;;;;4.10;0.88;;;;;;;25.15;31.85;101252.91;5103523;28;20020;-44
2022/05/31 11:28:25;;;;;;;1.85;0.90;;;;;;;25.20;31.82;101255.59;5100753;28;20047;-45
2022/05/31 11:31:23;;;;;;;1.75;0.70;;;;;;;24.95;31.48;101217.66;5104897;28;20038;-43
2022/05/31 11:34:09;;;;;;;2.88;0.80;;;;;;;25.14;31.64;101252.91;5082813;28;20040;-44
2022/05/31 11:37:15;;;;;;;4.82;0.98;;;;;;;25.12;32.19;101245.00;5105001;28;20034;-45
2022/05/31 11:40:06;;;;;;;2.25;0.95;;;;;;;25.26;31.63;101252.16;5104083;27;20027;-43
2022/05/31 11:42:54;;;;;;;3.47;0.63;;;;;;;25.30;31.53;101252.25;5102890;28;20027;-43
2022/05/31 11:45:45;;;;;;;3.05;0.88;;;;;;;25.21;31.72;101243.38;5095892;28;20078;-45
2022/05/31 11:48:14;;;;;;;3.17;0.90;;;;;;;25.15;31.48;101252.91;5100958;28;20468;-43
2022/05/31 11:50:44;;;;;;;5.53;1.33;;;;;;;24.98;31.52;101255.34;5104591;28;20031;-45
2022/05/31 11:53:35;;;;;;;3.72;1.25;;;;;;;24.82;32.14;101251.63;5103037;28;20039;-43
2022/05/31 11:56:07;;;;;;;5.00;1.20;;;;;;;24.83;32.12;101248.13;5102919;28;20060;-44
2022/05/31 11:58:57;;;;;;;4.57;1.00;;;;;;;24.82;31.67;101250.75;5104310;27;20019;-44
2022/05/31 12:01:32;;;;;;;2.65;0.70;;;;;;;24.68;32.22;101254.00;5095418;28;20070;-47
2022/05/31 12:04:27;;;;;;;3.17;0.80;;;;;;;24.77;32.01;101247.16;5104475;28;20063;-44
2022/05/31 12:06:55;;;;;;;4.72;0.80;;;;;;;24.83;31.78;101253.38;5101958;28;20473;-44
2022/05/31 12:09:36;;;;;;;2.70;0.75;;;;;;;24.77;31.86;101255.03;5102622;28;20053;-44
2022/05/31 12:12:12;;;;;;;2.17;1.05;;;;;;;24.76;31.42;101263.78;5103042;28;20496;-44
2022/05/31 12:14:51;;;;;;;2.88;0.88;;;;;;;24.73;31.64;101249.75;5103316;28;20119;-43